sensor_id;sensor_type;location;lat;lon;timestamp;temperature;humidity
34099;DHT22;20374;49.474;10.944;2024-01-06T00:01:35;3.20;99.90
34099;DHT22;20374;49.474;10.944;2024-01-06T00:04:01;3.30;99.90
34099;DHT22;20374;49.474;10.944;2024-01-06T00:06:27;3.40;99.90
34099;DHT22;20374;49.474;10.944;2024-01-06T00:08:53;3.40;99.90
34099;DHT22;20374;49.474;10.944;2024-01-06T00:11:22;3.30;99.90
34099;DHT22;20374;49.474;10.944;2024-01-06T00:13:48;3.40;99.90
34099;DHT22;20374;49.474;10.944;2024-01-06T00:16:17;3.40;99.90
34099;DHT22;20374;49.474;10.944;2024-01-06T00:18:44;3.40;99.90
34099;DHT22;20374;49.474;10.944;2024-01-06T00:21:10;3.40;99.90
34099;DHT22;20374;49.474;10.944;2024-01-06T00:23:36;3.40;99.90
34099;DHT22;20374;49.474;10.944;2024-01-06T00:26:03;3.40;99.90
34099;DHT22;20374;49.474;10.944;2024-01-06T00:28:29;3.30;99.90
34099;DHT22;20374;49.474;10.944;2024-01-06T00:30:55;3.30;99.90
34099;DHT22;20374;49.474;10.944;2024-01-06T00:33:21;3.20;99.90
34099;DHT22;20374;49.474;10.944;2024-01-06T00:35:47;3.20;99.90
34099;DHT22;20374;49.474;10.944;2024-01-06T00:38:13;3.30;99.90
34099;DHT22;20374;49.474;10.944;2024-01-06T00:40:38;3.20;99.90
34099;DHT22;20374;49.474;10.944;2024-01-06T00:43:04;3.20;99.90
34099;DHT22;20374;49.474;10.944;2024-01-06T00:45:30;3.20;99.90
34099;DHT22;20374;49.474;10.944;2024-01-06T00:47:57;3.30;99.90
34099;DHT22;20374;49.474;10.944;2024-01-06T00:50:23;3.20;99.90
34099;DHT22;20374;49.474;10.944;2024-01-06T00:52:49;3.30;99.90
34099;DHT22;20374;49.474;10.944;2024-01-06T00:55:19;3.40;99.90
34099;DHT22;20374;49.474;10.944;2024-01-06T00:57:45;3.40;99.90
34099;DHT22;20374;49.474;10.944;2024-01-06T01:00:11;3.40;99.90
34099;DHT22;20374;49.474;10.944;2024-01-06T01:02:37;3.50;99.90
34099;DHT22;20374;49.474;10.944;2024-01-06T01:05:04;3.40;99.90
34099;DHT22;20374;49.474;10.944;2024-01-06T01:07:30;3.50;99.90
34099;DHT22;20374;49.474;10.944;2024-01-06T01:09:56;3.50;99.90
34099;DHT22;20374;49.474;10.944;2024-01-06T01:12:23;3.50;99.90
34099;DHT22;20374;49.474;10.944;2024-01-06T01:14:49;3.50;99.90
34099;DHT22;20374;49.474;10.944;2024-01-06T01:17:16;3.60;99.90
34099;DHT22;20374;49.474;10.944;2024-01-06T01:19:42;3.60;99.90
34099;DHT22;20374;49.474;10.944;2024-01-06T01:22:08;3.60;99.90
34099;DHT22;20374;49.474;10.944;2024-01-06T01:24:34;3.50;99.90
34099;DHT22;20374;49.474;10.944;2024-01-06T01:27:00;3.50;99.90
34099;DHT22;20374;49.474;10.944;2024-01-06T01:29:26;3.50;99.90
34099;DHT22;20374;49.474;10.944;2024-01-06T01:31:52;3.50;99.90
34099;DHT22;20374;49.474;10.944;2024-01-06T01:34:18;3.40;99.90
34099;DHT22;20374;49.474;10.944;2024-01-06T01:36:43;3.50;99.90
34099;DHT22;20374;49.474;10.944;2024-01-06T01:39:10;3.40;99.90
34099;DHT22;20374;49.474;10.944;2024-01-06T01:41:36;3.40;99.90
34099;DHT22;20374;49.474;10.944;2024-01-06T01:44:02;3.40;99.90
34099;DHT22;20374;49.474;10.944;2024-01-06T01:46:29;3.40;99.90
34099;DHT22;20374;49.474;10.944;2024-01-06T01:48:55;3.50;99.90
34099;DHT22;20374;49.474;10.944;2024-01-06T01:51:22;3.50;99.90
34099;DHT22;20374;49.474;10.944;2024-01-06T01:53:49;3.50;99.90
34099;DHT22;20374;49.474;10.944;2024-01-06T01:56:16;3.50;99.90
34099;DHT22;20374;49.474;10.944;2024-01-06T01:58:42;3.50;99.90
34099;DHT22;20374;49.474;10.944;2024-01-06T02:01:08;3.50;99.90
34099;DHT22;20374;49.474;10.944;2024-01-06T02:03:35;3.50;99.90
34099;DHT22;20374;49.474;10.944;2024-01-06T02:06:01;3.50;99.90
34099;DHT22;20374;49.474;10.944;2024-01-06T02:08:27;3.50;99.90
34099;DHT22;20374;49.474;10.944;2024-01-06T02:10:55;3.50;99.90
34099;DHT22;20374;49.474;10.944;2024-01-06T02:13:23;3.60;99.90
34099;DHT22;20374;49.474;10.944;2024-01-06T02:15:49;3.60;99.90
34099;DHT22;20374;49.474;10.944;2024-01-06T02:18:16;3.60;99.90
34099;DHT22;20374;49.474;10.944;2024-01-06T02:20:43;3.60;99.90
34099;DHT22;20374;49.474;10.944;2024-01-06T02:23:10;3.60;99.90
34099;DHT22;20374;49.474;10.944;2024-01-06T02:25:36;3.60;99.90
34099;DHT22;20374;49.474;10.944;2024-01-06T02:28:02;3.60;99.90
34099;DHT22;20374;49.474;10.944;2024-01-06T02:30:28;3.60;99.90
34099;DHT22;20374;49.474;10.944;2024-01-06T02:32:54;3.60;99.90
34099;DHT22;20374;49.474;10.944;2024-01-06T02:35:21;3.60;99.90
34099;DHT22;20374;49.474;10.944;2024-01-06T02:37:46;3.50;99.90
34099;DHT22;20374;49.474;10.944;2024-01-06T02:40:13;3.40;99.90
34099;DHT22;20374;49.474;10.944;2024-01-06T02:42:39;3.50;99.90
34099;DHT22;20374;49.474;10.944;2024-01-06T02:45:07;3.60;99.90
34099;DHT22;20374;49.474;10.944;2024-01-06T02:47:34;3.50;99.90
34099;DHT22;20374;49.474;10.944;2024-01-06T02:49:59;3.60;99.90
34099;DHT22;20374;49.474;10.944;2024-01-06T02:52:25;3.60;99.90
34099;DHT22;20374;49.474;10.944;2024-01-06T02:54:51;3.60;99.90
34099;DHT22;20374;49.474;10.944;2024-01-06T02:57:18;3.60;99.90
34099;DHT22;20374;49.474;10.944;2024-01-06T02:59:44;3.70;99.90
34099;DHT22;20374;49.474;10.944;2024-01-06T03:02:11;3.70;99.90
34099;DHT22;20374;49.474;10.944;2024-01-06T03:04:37;3.80;99.90
34099;DHT22;20374;49.474;10.944;2024-01-06T03:07:03;3.80;99.90
34099;DHT22;20374;49.474;10.944;2024-01-06T03:09:29;3.80;99.90
34099;DHT22;20374;49.474;10.944;2024-01-06T03:11:54;3.80;99.90
34099;DHT22;20374;49.474;10.944;2024-01-06T03:14:20;3.80;99.90
34099;DHT22;20374;49.474;10.944;2024-01-06T03:16:46;3.80;99.90
34099;DHT22;20374;49.474;10.944;2024-01-06T03:19:12;3.70;99.90
34099;DHT22;20374;49.474;10.944;2024-01-06T03:21:38;3.80;99.90
34099;DHT22;20374;49.474;10.944;2024-01-06T03:24:04;3.80;99.90
34099;DHT22;20374;49.474;10.944;2024-01-06T03:26:30;3.70;99.90
34099;DHT22;20374;49.474;10.944;2024-01-06T03:28:56;3.80;99.90
34099;DHT22;20374;49.474;10.944;2024-01-06T03:31:24;3.80;99.90
34099;DHT22;20374;49.474;10.944;2024-01-06T03:33:50;3.70;99.90
34099;DHT22;20374;49.474;10.944;2024-01-06T03:36:17;3.70;99.90
34099;DHT22;20374;49.474;10.944;2024-01-06T03:38:43;3.70;99.90
34099;DHT22;20374;49.474;10.944;2024-01-06T03:41:09;3.60;99.90
34099;DHT22;20374;49.474;10.944;2024-01-06T03:43:34;3.70;99.90
34099;DHT22;20374;49.474;10.944;2024-01-06T03:46:00;3.60;99.90
34099;DHT22;20374;49.474;10.944;2024-01-06T03:48:26;3.80;99.90
34099;DHT22;20374;49.474;10.944;2024-01-06T03:50:52;3.80;99.90
34099;DHT22;20374;49.474;10.944;2024-01-06T03:53:18;3.70;99.90
34099;DHT22;20374;49.474;10.944;2024-01-06T03:55:44;3.80;99.90
34099;DHT22;20374;49.474;10.944;2024-01-06T03:58:10;3.60;99.90
34099;DHT22;20374;49.474;10.944;2024-01-06T04:00:35;3.80;99.90
34099;DHT22;20374;49.474;10.944;2024-01-06T04:03:01;3.80;99.90
34099;DHT22;20374;49.474;10.944;2024-01-06T04:05:28;3.80;99.90
34099;DHT22;20374;49.474;10.944;2024-01-06T04:07:53;3.80;99.90
34099;DHT22;20374;49.474;10.944;2024-01-06T04:10:19;3.80;99.90
34099;DHT22;20374;49.474;10.944;2024-01-06T04:12:45;3.80;99.90
34099;DHT22;20374;49.474;10.944;2024-01-06T04:15:11;3.70;99.90
34099;DHT22;20374;49.474;10.944;2024-01-06T04:17:37;3.60;99.90
34099;DHT22;20374;49.474;10.944;2024-01-06T04:20:03;3.70;99.90
34099;DHT22;20374;49.474;10.944;2024-01-06T04:22:29;3.60;99.90
34099;DHT22;20374;49.474;10.944;2024-01-06T04:24:55;3.60;99.90
34099;DHT22;20374;49.474;10.944;2024-01-06T04:27:21;3.60;99.90
34099;DHT22;20374;49.474;10.944;2024-01-06T04:29:47;3.40;99.90
34099;DHT22;20374;49.474;10.944;2024-01-06T04:32:13;3.50;99.90
34099;DHT22;20374;49.474;10.944;2024-01-06T04:34:39;3.40;99.90
34099;DHT22;20374;49.474;10.944;2024-01-06T04:37:05;3.50;99.90
34099;DHT22;20374;49.474;10.944;2024-01-06T04:39:31;3.40;99.90
34099;DHT22;20374;49.474;10.944;2024-01-06T04:41:56;3.40;99.90
34099;DHT22;20374;49.474;10.944;2024-01-06T04:44:23;3.40;99.90
34099;DHT22;20374;49.474;10.944;2024-01-06T04:46:49;3.30;99.90
34099;DHT22;20374;49.474;10.944;2024-01-06T04:49:15;3.20;99.90
34099;DHT22;20374;49.474;10.944;2024-01-06T04:51:41;3.20;99.90
34099;DHT22;20374;49.474;10.944;2024-01-06T04:54:07;3.10;99.90
34099;DHT22;20374;49.474;10.944;2024-01-06T04:56:33;3.00;99.90
34099;DHT22;20374;49.474;10.944;2024-01-06T04:58:59;2.90;99.90
34099;DHT22;20374;49.474;10.944;2024-01-06T05:01:25;2.90;99.90
34099;DHT22;20374;49.474;10.944;2024-01-06T05:03:50;2.90;99.90
34099;DHT22;20374;49.474;10.944;2024-01-06T05:06:16;2.90;99.90
34099;DHT22;20374;49.474;10.944;2024-01-06T05:08:42;2.90;99.90
34099;DHT22;20374;49.474;10.944;2024-01-06T05:11:11;2.80;99.90
34099;DHT22;20374;49.474;10.944;2024-01-06T05:13:37;2.80;99.90
34099;DHT22;20374;49.474;10.944;2024-01-06T05:16:03;2.80;99.90
34099;DHT22;20374;49.474;10.944;2024-01-06T05:18:29;2.80;99.90
34099;DHT22;20374;49.474;10.944;2024-01-06T05:20:55;2.80;99.90
34099;DHT22;20374;49.474;10.944;2024-01-06T05:23:22;2.70;99.90
34099;DHT22;20374;49.474;10.944;2024-01-06T05:25:48;2.70;99.90
34099;DHT22;20374;49.474;10.944;2024-01-06T05:28:14;2.70;99.90
34099;DHT22;20374;49.474;10.944;2024-01-06T05:30:39;2.60;99.90
34099;DHT22;20374;49.474;10.944;2024-01-06T05:33:08;2.60;99.90
34099;DHT22;20374;49.474;10.944;2024-01-06T05:35:35;2.60;99.90
34099;DHT22;20374;49.474;10.944;2024-01-06T05:38:01;2.70;99.90
34099;DHT22;20374;49.474;10.944;2024-01-06T05:40:27;2.60;99.90
34099;DHT22;20374;49.474;10.944;2024-01-06T05:42:53;2.60;99.90
34099;DHT22;20374;49.474;10.944;2024-01-06T05:45:21;2.60;99.90
34099;DHT22;20374;49.474;10.944;2024-01-06T05:47:48;2.60;99.90
34099;DHT22;20374;49.474;10.944;2024-01-06T05:50:16;2.50;99.90
34099;DHT22;20374;49.474;10.944;2024-01-06T05:52:42;2.50;99.90
34099;DHT22;20374;49.474;10.944;2024-01-06T05:55:08;2.50;99.90
34099;DHT22;20374;49.474;10.944;2024-01-06T05:57:35;2.40;99.90
34099;DHT22;20374;49.474;10.944;2024-01-06T06:00:01;2.50;99.90
34099;DHT22;20374;49.474;10.944;2024-01-06T06:02:27;2.50;99.90
34099;DHT22;20374;49.474;10.944;2024-01-06T06:04:53;2.50;99.90
34099;DHT22;20374;49.474;10.944;2024-01-06T06:07:19;2.50;99.90
34099;DHT22;20374;49.474;10.944;2024-01-06T06:09:46;2.50;99.90
34099;DHT22;20374;49.474;10.944;2024-01-06T06:12:15;2.50;99.90
34099;DHT22;20374;49.474;10.944;2024-01-06T06:14:40;2.50;99.90
34099;DHT22;20374;49.474;10.944;2024-01-06T06:17:07;2.40;99.90
34099;DHT22;20374;49.474;10.944;2024-01-06T06:19:32;2.50;99.90
34099;DHT22;20374;49.474;10.944;2024-01-06T06:21:58;2.50;99.90
34099;DHT22;20374;49.474;10.944;2024-01-06T06:24:24;2.50;99.90
34099;DHT22;20374;49.474;10.944;2024-01-06T06:26:50;2.50;99.90
34099;DHT22;20374;49.474;10.944;2024-01-06T06:29:16;2.50;99.90
34099;DHT22;20374;49.474;10.944;2024-01-06T06:31:42;2.50;99.90
34099;DHT22;20374;49.474;10.944;2024-01-06T06:34:12;2.50;99.90
34099;DHT22;20374;49.474;10.944;2024-01-06T06:36:38;2.50;99.90
34099;DHT22;20374;49.474;10.944;2024-01-06T06:39:04;2.40;99.90
34099;DHT22;20374;49.474;10.944;2024-01-06T06:41:30;2.40;99.90
34099;DHT22;20374;49.474;10.944;2024-01-06T06:43:57;2.30;99.90
34099;DHT22;20374;49.474;10.944;2024-01-06T06:46:23;2.30;99.90
34099;DHT22;20374;49.474;10.944;2024-01-06T06:48:49;2.20;99.90
34099;DHT22;20374;49.474;10.944;2024-01-06T06:51:16;2.30;99.90
34099;DHT22;20374;49.474;10.944;2024-01-06T06:53:42;2.10;99.90
34099;DHT22;20374;49.474;10.944;2024-01-06T06:56:08;2.00;99.90
34099;DHT22;20374;49.474;10.944;2024-01-06T06:58:34;2.00;99.90
34099;DHT22;20374;49.474;10.944;2024-01-06T07:00:59;2.00;99.90
34099;DHT22;20374;49.474;10.944;2024-01-06T07:03:26;1.90;99.90
34099;DHT22;20374;49.474;10.944;2024-01-06T07:05:52;1.90;99.90
34099;DHT22;20374;49.474;10.944;2024-01-06T07:08:18;1.90;99.90
34099;DHT22;20374;49.474;10.944;2024-01-06T07:10:44;1.90;99.90
34099;DHT22;20374;49.474;10.944;2024-01-06T07:13:10;1.90;99.90
34099;DHT22;20374;49.474;10.944;2024-01-06T07:15:36;1.90;99.90
34099;DHT22;20374;49.474;10.944;2024-01-06T07:18:02;1.80;99.90
34099;DHT22;20374;49.474;10.944;2024-01-06T07:20:28;1.90;99.90
34099;DHT22;20374;49.474;10.944;2024-01-06T07:22:53;1.90;99.90
34099;DHT22;20374;49.474;10.944;2024-01-06T07:25:19;1.90;99.90
34099;DHT22;20374;49.474;10.944;2024-01-06T07:27:45;1.90;99.90
34099;DHT22;20374;49.474;10.944;2024-01-06T07:30:12;1.90;99.90
34099;DHT22;20374;49.474;10.944;2024-01-06T07:32:38;1.90;99.90
34099;DHT22;20374;49.474;10.944;2024-01-06T07:35:04;2.00;99.90
34099;DHT22;20374;49.474;10.944;2024-01-06T07:37:30;2.00;99.90
34099;DHT22;20374;49.474;10.944;2024-01-06T07:39:56;2.00;99.90
34099;DHT22;20374;49.474;10.944;2024-01-06T07:42:21;2.00;99.90
34099;DHT22;20374;49.474;10.944;2024-01-06T07:44:47;2.10;99.90
34099;DHT22;20374;49.474;10.944;2024-01-06T07:47:13;2.10;99.90
34099;DHT22;20374;49.474;10.944;2024-01-06T07:49:40;2.10;99.90
34099;DHT22;20374;49.474;10.944;2024-01-06T07:52:06;2.10;99.90
34099;DHT22;20374;49.474;10.944;2024-01-06T07:54:32;2.20;99.90
34099;DHT22;20374;49.474;10.944;2024-01-06T07:56:57;2.20;99.90
34099;DHT22;20374;49.474;10.944;2024-01-06T07:59:24;2.30;99.90
34099;DHT22;20374;49.474;10.944;2024-01-06T08:01:50;2.30;99.90
34099;DHT22;20374;49.474;10.944;2024-01-06T08:04:16;2.40;99.90
34099;DHT22;20374;49.474;10.944;2024-01-06T08:06:42;2.50;99.90
34099;DHT22;20374;49.474;10.944;2024-01-06T08:09:08;2.50;99.90
34099;DHT22;20374;49.474;10.944;2024-01-06T08:11:34;2.60;99.90
34099;DHT22;20374;49.474;10.944;2024-01-06T08:13:59;2.60;99.90
34099;DHT22;20374;49.474;10.944;2024-01-06T08:16:25;2.60;99.90
34099;DHT22;20374;49.474;10.944;2024-01-06T08:18:51;2.70;99.90
34099;DHT22;20374;49.474;10.944;2024-01-06T08:21:17;2.80;99.90
34099;DHT22;20374;49.474;10.944;2024-01-06T08:23:43;2.80;99.90
34099;DHT22;20374;49.474;10.944;2024-01-06T08:26:09;2.90;99.90
34099;DHT22;20374;49.474;10.944;2024-01-06T08:28:35;2.90;99.90
34099;DHT22;20374;49.474;10.944;2024-01-06T08:31:01;2.90;99.90
34099;DHT22;20374;49.474;10.944;2024-01-06T08:33:27;3.00;99.90
34099;DHT22;20374;49.474;10.944;2024-01-06T08:35:53;2.90;99.90
34099;DHT22;20374;49.474;10.944;2024-01-06T08:38:19;2.90;99.90
34099;DHT22;20374;49.474;10.944;2024-01-06T08:40:45;3.20;99.90
34099;DHT22;20374;49.474;10.944;2024-01-06T08:43:13;3.10;99.90
34099;DHT22;20374;49.474;10.944;2024-01-06T08:45:39;3.20;99.90
34099;DHT22;20374;49.474;10.944;2024-01-06T08:48:08;3.30;99.90
34099;DHT22;20374;49.474;10.944;2024-01-06T08:50:34;3.40;99.90
34099;DHT22;20374;49.474;10.944;2024-01-06T08:53:00;3.50;99.90
34099;DHT22;20374;49.474;10.944;2024-01-06T08:55:26;3.70;99.90
34099;DHT22;20374;49.474;10.944;2024-01-06T08:57:52;3.80;99.90
34099;DHT22;20374;49.474;10.944;2024-01-06T09:00:18;4.00;99.90
34099;DHT22;20374;49.474;10.944;2024-01-06T09:02:44;4.00;99.90
34099;DHT22;20374;49.474;10.944;2024-01-06T09:05:10;4.10;99.90
34099;DHT22;20374;49.474;10.944;2024-01-06T09:07:36;4.20;99.90
34099;DHT22;20374;49.474;10.944;2024-01-06T09:12:46;4.40;99.90
34099;DHT22;20374;49.474;10.944;2024-01-06T09:15:12;4.50;99.90
34099;DHT22;20374;49.474;10.944;2024-01-06T09:17:38;4.60;99.90
34099;DHT22;20374;49.474;10.944;2024-01-06T09:20:04;4.50;99.90
34099;DHT22;20374;49.474;10.944;2024-01-06T09:22:31;4.50;99.90
34099;DHT22;20374;49.474;10.944;2024-01-06T09:24:58;4.50;99.90
34099;DHT22;20374;49.474;10.944;2024-01-06T09:27:24;4.50;99.90
34099;DHT22;20374;49.474;10.944;2024-01-06T09:29:50;4.60;99.90
34099;DHT22;20374;49.474;10.944;2024-01-06T09:32:16;4.60;99.90
34099;DHT22;20374;49.474;10.944;2024-01-06T09:35:10;4.70;99.90
34099;DHT22;20374;49.474;10.944;2024-01-06T09:37:36;4.80;99.90
34099;DHT22;20374;49.474;10.944;2024-01-06T09:43:19;4.70;99.90
34099;DHT22;20374;49.474;10.944;2024-01-06T09:48:32;4.80;99.90
34099;DHT22;20374;49.474;10.944;2024-01-06T09:51:02;4.70;99.90
34099;DHT22;20374;49.474;10.944;2024-01-06T09:53:59;4.80;99.90
34099;DHT22;20374;49.474;10.944;2024-01-06T09:56:27;4.80;99.90
34099;DHT22;20374;49.474;10.944;2024-01-06T09:58:54;4.70;99.90
34099;DHT22;20374;49.474;10.944;2024-01-06T10:01:21;4.70;99.90
34099;DHT22;20374;49.474;10.944;2024-01-06T10:03:47;4.70;99.90
34099;DHT22;20374;49.474;10.944;2024-01-06T10:06:14;4.80;99.90
34099;DHT22;20374;49.474;10.944;2024-01-06T10:08:43;4.80;99.90
34099;DHT22;20374;49.474;10.944;2024-01-06T10:11:30;4.90;99.90
34099;DHT22;20374;49.474;10.944;2024-01-06T10:14:03;4.90;99.90
34099;DHT22;20374;49.474;10.944;2024-01-06T10:16:30;5.00;99.90
34099;DHT22;20374;49.474;10.944;2024-01-06T10:19:18;5.00;99.90
34099;DHT22;20374;49.474;10.944;2024-01-06T10:49:36;5.50;99.90
34099;DHT22;20374;49.474;10.944;2024-01-06T11:10:15;5.90;99.90
34099;DHT22;20374;49.474;10.944;2024-01-06T11:13:13;5.90;99.90
34099;DHT22;20374;49.474;10.944;2024-01-06T11:29:30;5.80;99.90
34099;DHT22;20374;49.474;10.944;2024-01-06T11:35:37;5.90;99.90
34099;DHT22;20374;49.474;10.944;2024-01-06T11:38:22;5.80;99.90
34099;DHT22;20374;49.474;10.944;2024-01-06T11:45:03;5.70;99.90
34099;DHT22;20374;49.474;10.944;2024-01-06T11:51:05;5.50;99.90
34099;DHT22;20374;49.474;10.944;2024-01-06T11:53:58;5.50;99.90
34099;DHT22;20374;49.474;10.944;2024-01-06T12:02:49;5.40;99.90
34099;DHT22;20374;49.474;10.944;2024-01-06T12:09:12;5.60;99.90
34099;DHT22;20374;49.474;10.944;2024-01-06T12:12:08;5.60;99.90
34099;DHT22;20374;49.474;10.944;2024-01-06T12:14:36;5.60;99.90
34099;DHT22;20374;49.474;10.944;2024-01-06T12:17:28;5.50;99.90
34099;DHT22;20374;49.474;10.944;2024-01-06T12:20:15;5.50;99.90
34099;DHT22;20374;49.474;10.944;2024-01-06T12:22:41;5.50;99.90
34099;DHT22;20374;49.474;10.944;2024-01-06T12:25:09;5.40;99.90
34099;DHT22;20374;49.474;10.944;2024-01-06T12:27:35;5.40;99.90
34099;DHT22;20374;49.474;10.944;2024-01-06T12:30:02;5.40;99.90
34099;DHT22;20374;49.474;10.944;2024-01-06T12:45:05;5.60;99.90
34099;DHT22;20374;49.474;10.944;2024-01-06T12:56:51;5.70;99.90
34099;DHT22;20374;49.474;10.944;2024-01-06T12:59:41;5.70;99.90
34099;DHT22;20374;49.474;10.944;2024-01-06T13:05:56;5.70;99.90
34099;DHT22;20374;49.474;10.944;2024-01-06T13:15:20;5.60;99.90
34099;DHT22;20374;49.474;10.944;2024-01-06T13:21:42;5.50;99.90
34099;DHT22;20374;49.474;10.944;2024-01-06T13:24:26;5.60;99.90
34099;DHT22;20374;49.474;10.944;2024-01-06T13:27:14;5.60;99.90
34099;DHT22;20374;49.474;10.944;2024-01-06T13:36:04;5.40;99.90
34099;DHT22;20374;49.474;10.944;2024-01-06T13:38:30;5.40;99.90
34099;DHT22;20374;49.474;10.944;2024-01-06T13:40:56;5.30;99.90
34099;DHT22;20374;49.474;10.944;2024-01-06T13:43:22;5.20;99.90
34099;DHT22;20374;49.474;10.944;2024-01-06T13:45:48;5.20;99.90
34099;DHT22;20374;49.474;10.944;2024-01-06T13:48:14;5.20;99.90
34099;DHT22;20374;49.474;10.944;2024-01-06T13:50:40;5.20;99.90
34099;DHT22;20374;49.474;10.944;2024-01-06T13:53:06;5.10;99.90
34099;DHT22;20374;49.474;10.944;2024-01-06T13:55:33;5.20;99.90
34099;DHT22;20374;49.474;10.944;2024-01-06T13:57:59;5.20;99.90
34099;DHT22;20374;49.474;10.944;2024-01-06T14:00:42;5.20;99.90
34099;DHT22;20374;49.474;10.944;2024-01-06T14:03:11;5.20;99.90
34099;DHT22;20374;49.474;10.944;2024-01-06T14:06:04;5.30;99.90
34099;DHT22;20374;49.474;10.944;2024-01-06T14:08:31;5.30;99.90
34099;DHT22;20374;49.474;10.944;2024-01-06T14:10:58;5.30;99.90
34099;DHT22;20374;49.474;10.944;2024-01-06T14:13:24;5.30;99.90
34099;DHT22;20374;49.474;10.944;2024-01-06T14:15:50;5.30;99.90
34099;DHT22;20374;49.474;10.944;2024-01-06T14:18:23;5.30;99.90
34099;DHT22;20374;49.474;10.944;2024-01-06T14:20:49;5.30;99.90
34099;DHT22;20374;49.474;10.944;2024-01-06T14:23:17;5.20;99.90
34099;DHT22;20374;49.474;10.944;2024-01-06T14:25:43;5.30;99.90
34099;DHT22;20374;49.474;10.944;2024-01-06T14:28:38;5.30;99.90
34099;DHT22;20374;49.474;10.944;2024-01-06T14:31:05;5.30;99.90
34099;DHT22;20374;49.474;10.944;2024-01-06T14:33:31;5.20;99.90
34099;DHT22;20374;49.474;10.944;2024-01-06T14:35:57;5.20;99.90
34099;DHT22;20374;49.474;10.944;2024-01-06T14:38:24;5.20;99.90
34099;DHT22;20374;49.474;10.944;2024-01-06T14:40:50;5.30;99.90
34099;DHT22;20374;49.474;10.944;2024-01-06T14:43:22;5.30;99.90
34099;DHT22;20374;49.474;10.944;2024-01-06T14:45:49;5.20;99.90
34099;DHT22;20374;49.474;10.944;2024-01-06T14:48:15;5.20;99.90
34099;DHT22;20374;49.474;10.944;2024-01-06T14:51:01;5.30;99.90
34099;DHT22;20374;49.474;10.944;2024-01-06T14:53:29;5.00;99.90
34099;DHT22;20374;49.474;10.944;2024-01-06T14:55:55;5.20;99.90
34099;DHT22;20374;49.474;10.944;2024-01-06T14:58:21;5.10;99.90
34099;DHT22;20374;49.474;10.944;2024-01-06T15:00:48;5.10;99.90
34099;DHT22;20374;49.474;10.944;2024-01-06T15:03:14;5.00;99.90
34099;DHT22;20374;49.474;10.944;2024-01-06T15:05:40;5.00;99.90
34099;DHT22;20374;49.474;10.944;2024-01-06T15:08:06;4.80;99.90
34099;DHT22;20374;49.474;10.944;2024-01-06T15:10:32;4.80;99.90
34099;DHT22;20374;49.474;10.944;2024-01-06T15:12:59;4.70;99.90
34099;DHT22;20374;49.474;10.944;2024-01-06T15:15:25;4.60;99.90
34099;DHT22;20374;49.474;10.944;2024-01-06T15:17:51;4.50;99.90
34099;DHT22;20374;49.474;10.944;2024-01-06T15:20:17;4.40;99.90
34099;DHT22;20374;49.474;10.944;2024-01-06T15:22:44;4.30;99.90
34099;DHT22;20374;49.474;10.944;2024-01-06T15:25:09;4.30;99.90
34099;DHT22;20374;49.474;10.944;2024-01-06T15:27:35;4.20;99.90
34099;DHT22;20374;49.474;10.944;2024-01-06T15:30:01;4.10;99.90
34099;DHT22;20374;49.474;10.944;2024-01-06T15:32:33;4.00;99.90
34099;DHT22;20374;49.474;10.944;2024-01-06T15:34:59;4.00;99.90
34099;DHT22;20374;49.474;10.944;2024-01-06T15:37:24;3.90;99.90
34099;DHT22;20374;49.474;10.944;2024-01-06T15:39:50;3.90;99.90
34099;DHT22;20374;49.474;10.944;2024-01-06T15:42:17;3.80;99.90
34099;DHT22;20374;49.474;10.944;2024-01-06T15:44:42;3.90;99.90
34099;DHT22;20374;49.474;10.944;2024-01-06T15:47:08;3.80;99.90
34099;DHT22;20374;49.474;10.944;2024-01-06T15:49:34;4.00;99.90
34099;DHT22;20374;49.474;10.944;2024-01-06T15:52:00;4.00;99.90
34099;DHT22;20374;49.474;10.944;2024-01-06T15:54:26;4.00;99.90
34099;DHT22;20374;49.474;10.944;2024-01-06T15:56:53;4.00;99.90
34099;DHT22;20374;49.474;10.944;2024-01-06T15:59:19;4.00;99.90
34099;DHT22;20374;49.474;10.944;2024-01-06T16:01:45;4.00;99.90
34099;DHT22;20374;49.474;10.944;2024-01-06T16:04:11;4.00;99.90
34099;DHT22;20374;49.474;10.944;2024-01-06T16:06:37;4.00;99.90
34099;DHT22;20374;49.474;10.944;2024-01-06T16:09:02;4.00;99.90
34099;DHT22;20374;49.474;10.944;2024-01-06T16:11:31;4.00;99.90
34099;DHT22;20374;49.474;10.944;2024-01-06T16:13:57;4.00;99.90
34099;DHT22;20374;49.474;10.944;2024-01-06T16:16:28;4.10;99.90
34099;DHT22;20374;49.474;10.944;2024-01-06T16:18:54;4.10;99.90
34099;DHT22;20374;49.474;10.944;2024-01-06T16:21:26;4.20;99.90
34099;DHT22;20374;49.474;10.944;2024-01-06T16:23:52;4.20;99.90
34099;DHT22;20374;49.474;10.944;2024-01-06T16:26:18;4.10;99.90
34099;DHT22;20374;49.474;10.944;2024-01-06T16:28:45;4.10;99.90
34099;DHT22;20374;49.474;10.944;2024-01-06T16:31:11;4.10;99.90
34099;DHT22;20374;49.474;10.944;2024-01-06T16:33:37;4.10;99.90
34099;DHT22;20374;49.474;10.944;2024-01-06T16:36:03;4.10;99.90
34099;DHT22;20374;49.474;10.944;2024-01-06T16:38:34;4.10;99.90
34099;DHT22;20374;49.474;10.944;2024-01-06T16:41:01;4.00;99.90
34099;DHT22;20374;49.474;10.944;2024-01-06T16:43:29;4.00;99.90
34099;DHT22;20374;49.474;10.944;2024-01-06T16:45:55;4.00;99.90
34099;DHT22;20374;49.474;10.944;2024-01-06T16:48:21;4.00;99.90
34099;DHT22;20374;49.474;10.944;2024-01-06T16:50:47;4.10;99.90
34099;DHT22;20374;49.474;10.944;2024-01-06T16:53:13;4.00;99.90
34099;DHT22;20374;49.474;10.944;2024-01-06T16:55:39;4.00;99.90
34099;DHT22;20374;49.474;10.944;2024-01-06T16:58:05;4.00;99.90
34099;DHT22;20374;49.474;10.944;2024-01-06T17:00:31;4.00;99.90
34099;DHT22;20374;49.474;10.944;2024-01-06T17:02:57;4.10;99.90
34099;DHT22;20374;49.474;10.944;2024-01-06T17:05:23;4.10;99.90
34099;DHT22;20374;49.474;10.944;2024-01-06T17:07:50;4.10;99.90
34099;DHT22;20374;49.474;10.944;2024-01-06T17:10:16;4.10;99.90
34099;DHT22;20374;49.474;10.944;2024-01-06T17:12:42;4.00;99.90
34099;DHT22;20374;49.474;10.944;2024-01-06T17:15:09;4.00;99.90
34099;DHT22;20374;49.474;10.944;2024-01-06T17:17:35;4.00;99.90
34099;DHT22;20374;49.474;10.944;2024-01-06T17:20:05;4.00;99.90
34099;DHT22;20374;49.474;10.944;2024-01-06T17:22:32;4.00;99.90
34099;DHT22;20374;49.474;10.944;2024-01-06T17:24:57;4.00;99.90
34099;DHT22;20374;49.474;10.944;2024-01-06T17:27:25;4.00;99.90
34099;DHT22;20374;49.474;10.944;2024-01-06T17:29:51;4.10;99.90
34099;DHT22;20374;49.474;10.944;2024-01-06T17:32:18;4.10;99.90
34099;DHT22;20374;49.474;10.944;2024-01-06T17:34:44;4.10;99.90
34099;DHT22;20374;49.474;10.944;2024-01-06T17:37:10;4.10;99.90
34099;DHT22;20374;49.474;10.944;2024-01-06T17:39:36;4.10;99.90
34099;DHT22;20374;49.474;10.944;2024-01-06T17:42:03;4.20;99.90
34099;DHT22;20374;49.474;10.944;2024-01-06T17:44:31;4.20;99.90